Gifu, Gifu Air Field (RJNG)

NameGifu Air Field
CityGifu
CountryJapan
ICAORJNG
IATAQGU
Altitude39 m
CoordinatesGoogle Map
Live Air TrafficLiveATC.net
METARRJNG 161347Z VRB01KT 9999 FEW030 SCT100 19/14 Q1017 RMK 1CU030 3AC100 A3003
2019-05-16 13:47:00 Wind: North (0°) 0.51 m/s - Visibility: > 10000 m - Temperature: 19 °C - Dew point: 14 °C - Humidity: 72.9% - Pressure: 1017 hPa
Statistics

The table below shows the detailed information of all flights to/from Gifu, Gifu Air Field (RJNG).